sensor_id;sensor_type;location;lat;lon;timestamp;P1;durP1;ratioP1;P2;durP2;ratioP2
76617;SDS011;65509;42.816;74.648;2024-02-23T00:01:49;53.90;;;8.38;;
76617;SDS011;65509;42.816;74.648;2024-02-23T00:04:14;27.48;;;6.95;;
76617;SDS011;65509;42.816;74.648;2024-02-23T00:06:42;55.58;;;8.23;;
76617;SDS011;65509;42.816;74.648;2024-02-23T00:09:07;56.25;;;8.00;;
76617;SDS011;65509;42.816;74.648;2024-02-23T00:11:33;28.48;;;7.07;;
76617;SDS011;65509;42.816;74.648;2024-02-23T00:13:59;42.80;;;7.45;;
76617;SDS011;65509;42.816;74.648;2024-02-23T00:16:25;36.70;;;6.80;;
76617;SDS011;65509;42.816;74.648;2024-02-23T00:18:51;65.57;;;7.70;;
76617;SDS011;65509;42.816;74.648;2024-02-23T00:21:17;43.22;;;5.78;;
76617;SDS011;65509;42.816;74.648;2024-02-23T00:23:42;45.42;;;5.80;;
76617;SDS011;65509;42.816;74.648;2024-02-23T00:26:07;35.05;;;6.07;;
76617;SDS011;65509;42.816;74.648;2024-02-23T00:28:33;26.80;;;6.07;;
76617;SDS011;65509;42.816;74.648;2024-02-23T00:30:59;45.55;;;7.18;;
76617;SDS011;65509;42.816;74.648;2024-02-23T00:33:27;34.75;;;7.00;;
76617;SDS011;65509;42.816;74.648;2024-02-23T00:35:52;62.75;;;8.15;;
76617;SDS011;65509;42.816;74.648;2024-02-23T00:38:18;48.58;;;8.40;;
76617;SDS011;65509;42.816;74.648;2024-02-23T00:40:44;57.03;;;8.85;;
76617;SDS011;65509;42.816;74.648;2024-02-23T00:43:09;38.17;;;7.10;;
76617;SDS011;65509;42.816;74.648;2024-02-23T00:45:35;32.85;;;7.15;;
76617;SDS011;65509;42.816;74.648;2024-02-23T00:48:00;43.30;;;7.35;;
76617;SDS011;65509;42.816;74.648;2024-02-23T00:50:26;35.70;;;6.80;;
76617;SDS011;65509;42.816;74.648;2024-02-23T00:52:52;20.40;;;6.35;;
76617;SDS011;65509;42.816;74.648;2024-02-23T00:55:18;37.35;;;6.72;;
76617;SDS011;65509;42.816;74.648;2024-02-23T00:57:43;41.42;;;6.53;;
76617;SDS011;65509;42.816;74.648;2024-02-23T01:00:09;33.85;;;6.55;;
76617;SDS011;65509;42.816;74.648;2024-02-23T01:02:34;25.60;;;6.38;;
76617;SDS011;65509;42.816;74.648;2024-02-23T01:05:00;29.15;;;7.38;;
76617;SDS011;65509;42.816;74.648;2024-02-23T01:07:25;34.25;;;7.25;;
76617;SDS011;65509;42.816;74.648;2024-02-23T01:09:51;52.63;;;7.63;;
76617;SDS011;65509;42.816;74.648;2024-02-23T01:12:16;52.83;;;8.10;;
76617;SDS011;65509;42.816;74.648;2024-02-23T01:14:42;43.83;;;8.05;;
76617;SDS011;65509;42.816;74.648;2024-02-23T01:17:07;31.85;;;7.38;;
76617;SDS011;65509;42.816;74.648;2024-02-23T01:19:33;35.63;;;6.93;;
76617;SDS011;65509;42.816;74.648;2024-02-23T01:21:58;31.00;;;6.97;;
76617;SDS011;65509;42.816;74.648;2024-02-23T01:24:26;35.00;;;7.25;;
76617;SDS011;65509;42.816;74.648;2024-02-23T01:26:55;47.20;;;10.25;;
76617;SDS011;65509;42.816;74.648;2024-02-23T01:29:21;45.50;;;14.05;;
76617;SDS011;65509;42.816;74.648;2024-02-23T01:31:47;64.13;;;14.55;;
76617;SDS011;65509;42.816;74.648;2024-02-23T01:34:13;54.80;;;12.43;;
76617;SDS011;65509;42.816;74.648;2024-02-23T01:36:38;47.33;;;12.45;;
76617;SDS011;65509;42.816;74.648;2024-02-23T01:39:04;52.53;;;12.77;;
76617;SDS011;65509;42.816;74.648;2024-02-23T01:41:29;41.50;;;11.00;;
76617;SDS011;65509;42.816;74.648;2024-02-23T01:43:55;65.60;;;12.05;;
76617;SDS011;65509;42.816;74.648;2024-02-23T01:46:20;35.78;;;11.02;;
76617;SDS011;65509;42.816;74.648;2024-02-23T01:48:46;52.55;;;11.50;;
76617;SDS011;65509;42.816;74.648;2024-02-23T01:51:12;43.47;;;10.63;;
76617;SDS011;65509;42.816;74.648;2024-02-23T01:53:38;44.95;;;10.90;;
76617;SDS011;65509;42.816;74.648;2024-02-23T01:56:04;46.30;;;11.15;;
76617;SDS011;65509;42.816;74.648;2024-02-23T01:58:30;49.45;;;12.48;;
76617;SDS011;65509;42.816;74.648;2024-02-23T02:00:56;49.42;;;12.50;;
76617;SDS011;65509;42.816;74.648;2024-02-23T02:03:21;43.33;;;14.30;;
76617;SDS011;65509;42.816;74.648;2024-02-23T02:05:47;87.57;;;15.93;;
76617;SDS011;65509;42.816;74.648;2024-02-23T02:08:14;65.40;;;15.10;;
76617;SDS011;65509;42.816;74.648;2024-02-23T02:10:40;60.05;;;14.32;;
76617;SDS011;65509;42.816;74.648;2024-02-23T02:13:07;61.95;;;12.93;;
76617;SDS011;65509;42.816;74.648;2024-02-23T02:15:33;47.40;;;13.75;;
76617;SDS011;65509;42.816;74.648;2024-02-23T02:17:58;49.78;;;13.57;;
76617;SDS011;65509;42.816;74.648;2024-02-23T02:20:24;48.08;;;13.60;;
76617;SDS011;65509;42.816;74.648;2024-02-23T02:22:51;61.53;;;13.23;;
76617;SDS011;65509;42.816;74.648;2024-02-23T02:25:17;54.67;;;13.10;;
76617;SDS011;65509;42.816;74.648;2024-02-23T02:27:46;77.75;;;13.40;;
76617;SDS011;65509;42.816;74.648;2024-02-23T02:30:12;66.88;;;13.52;;
76617;SDS011;65509;42.816;74.648;2024-02-23T02:32:37;48.05;;;13.13;;
76617;SDS011;65509;42.816;74.648;2024-02-23T02:35:03;58.75;;;13.52;;
76617;SDS011;65509;42.816;74.648;2024-02-23T02:37:29;54.30;;;15.02;;
76617;SDS011;65509;42.816;74.648;2024-02-23T02:39:54;95.60;;;17.65;;
76617;SDS011;65509;42.816;74.648;2024-02-23T02:42:22;80.88;;;16.85;;
76617;SDS011;65509;42.816;74.648;2024-02-23T02:44:48;75.63;;;16.25;;
76617;SDS011;65509;42.816;74.648;2024-02-23T02:47:13;69.78;;;15.45;;
76617;SDS011;65509;42.816;74.648;2024-02-23T02:49:39;43.08;;;12.82;;
76617;SDS011;65509;42.816;74.648;2024-02-23T02:52:18;45.05;;;11.45;;
76617;SDS011;65509;42.816;74.648;2024-02-23T02:54:46;68.03;;;13.13;;
76617;SDS011;65509;42.816;74.648;2024-02-23T02:57:11;48.28;;;12.93;;
76617;SDS011;65509;42.816;74.648;2024-02-23T02:59:39;35.15;;;11.30;;
76617;SDS011;65509;42.816;74.648;2024-02-23T03:02:05;32.47;;;11.90;;
76617;SDS011;65509;42.816;74.648;2024-02-23T03:04:31;58.28;;;12.95;;
76617;SDS011;65509;42.816;74.648;2024-02-23T03:06:56;70.53;;;11.80;;
76617;SDS011;65509;42.816;74.648;2024-02-23T03:09:40;28.83;;;11.40;;
76617;SDS011;65509;42.816;74.648;2024-02-23T03:14:37;52.40;;;12.45;;
76617;SDS011;65509;42.816;74.648;2024-02-23T03:17:05;46.92;;;12.88;;
76617;SDS011;65509;42.816;74.648;2024-02-23T03:19:30;36.50;;;12.70;;
76617;SDS011;65509;42.816;74.648;2024-02-23T03:21:57;55.33;;;11.90;;
76617;SDS011;65509;42.816;74.648;2024-02-23T03:24:23;55.13;;;13.85;;
76617;SDS011;65509;42.816;74.648;2024-02-23T03:26:48;60.92;;;13.02;;
76617;SDS011;65509;42.816;74.648;2024-02-23T03:29:13;47.53;;;13.98;;
76617;SDS011;65509;42.816;74.648;2024-02-23T03:31:43;57.00;;;15.95;;
76617;SDS011;65509;42.816;74.648;2024-02-23T03:34:09;64.30;;;15.45;;
76617;SDS011;65509;42.816;74.648;2024-02-23T03:36:34;60.92;;;15.90;;
76617;SDS011;65509;42.816;74.648;2024-02-23T03:39:00;96.65;;;16.45;;
76617;SDS011;65509;42.816;74.648;2024-02-23T03:41:32;50.47;;;18.58;;
76617;SDS011;65509;42.816;74.648;2024-02-23T03:43:57;59.22;;;19.23;;
76617;SDS011;65509;42.816;74.648;2024-02-23T03:46:23;51.38;;;18.02;;
76617;SDS011;65509;42.816;74.648;2024-02-23T03:48:49;56.70;;;19.58;;
76617;SDS011;65509;42.816;74.648;2024-02-23T03:51:16;54.38;;;21.63;;
76617;SDS011;65509;42.816;74.648;2024-02-23T03:53:42;51.80;;;16.38;;
76617;SDS011;65509;42.816;74.648;2024-02-23T03:56:07;51.75;;;20.77;;
76617;SDS011;65509;42.816;74.648;2024-02-23T03:58:33;41.20;;;18.17;;
76617;SDS011;65509;42.816;74.648;2024-02-23T04:01:00;54.70;;;19.10;;
76617;SDS011;65509;42.816;74.648;2024-02-23T04:03:27;46.38;;;18.77;;
76617;SDS011;65509;42.816;74.648;2024-02-23T04:05:52;64.05;;;19.67;;
76617;SDS011;65509;42.816;74.648;2024-02-23T04:08:18;51.28;;;18.75;;
76617;SDS011;65509;42.816;74.648;2024-02-23T04:10:43;46.95;;;18.92;;
76617;SDS011;65509;42.816;74.648;2024-02-23T04:13:09;40.42;;;16.90;;
76617;SDS011;65509;42.816;74.648;2024-02-23T04:15:39;43.83;;;18.42;;
76617;SDS011;65509;42.816;74.648;2024-02-23T04:18:10;46.65;;;18.70;;
76617;SDS011;65509;42.816;74.648;2024-02-23T04:20:39;46.88;;;17.65;;
76617;SDS011;65509;42.816;74.648;2024-02-23T04:25:48;46.45;;;18.48;;
76617;SDS011;65509;42.816;74.648;2024-02-23T04:28:24;43.35;;;16.90;;
76617;SDS011;65509;42.816;74.648;2024-02-23T04:30:53;49.33;;;19.33;;
76617;SDS011;65509;42.816;74.648;2024-02-23T04:33:38;51.88;;;17.65;;
76617;SDS011;65509;42.816;74.648;2024-02-23T04:36:04;62.17;;;16.10;;
76617;SDS011;65509;42.816;74.648;2024-02-23T04:38:30;40.83;;;15.23;;
76617;SDS011;65509;42.816;74.648;2024-02-23T04:40:56;57.78;;;16.63;;
76617;SDS011;65509;42.816;74.648;2024-02-23T04:43:24;48.63;;;16.63;;
76617;SDS011;65509;42.816;74.648;2024-02-23T04:45:52;68.35;;;15.45;;
76617;SDS011;65509;42.816;74.648;2024-02-23T04:48:17;56.28;;;18.30;;
76617;SDS011;65509;42.816;74.648;2024-02-23T04:50:42;40.95;;;16.20;;
76617;SDS011;65509;42.816;74.648;2024-02-23T04:53:08;35.13;;;14.38;;
76617;SDS011;65509;42.816;74.648;2024-02-23T04:55:33;36.55;;;15.65;;
76617;SDS011;65509;42.816;74.648;2024-02-23T04:57:59;68.38;;;16.13;;
76617;SDS011;65509;42.816;74.648;2024-02-23T05:00:24;36.47;;;15.98;;
76617;SDS011;65509;42.816;74.648;2024-02-23T05:02:53;51.63;;;17.17;;
76617;SDS011;65509;42.816;74.648;2024-02-23T05:05:20;41.42;;;17.30;;
76617;SDS011;65509;42.816;74.648;2024-02-23T05:07:47;37.80;;;16.65;;
76617;SDS011;65509;42.816;74.648;2024-02-23T05:10:16;53.63;;;16.83;;
76617;SDS011;65509;42.816;74.648;2024-02-23T05:12:42;34.80;;;14.55;;
76617;SDS011;65509;42.816;74.648;2024-02-23T05:15:08;44.47;;;15.88;;
76617;SDS011;65509;42.816;74.648;2024-02-23T05:17:37;40.42;;;16.48;;
76617;SDS011;65509;42.816;74.648;2024-02-23T05:20:03;70.00;;;17.77;;
76617;SDS011;65509;42.816;74.648;2024-02-23T05:22:40;49.38;;;16.90;;
76617;SDS011;65509;42.816;74.648;2024-02-23T05:25:06;57.28;;;16.42;;
76617;SDS011;65509;42.816;74.648;2024-02-23T05:27:34;49.00;;;14.85;;
76617;SDS011;65509;42.816;74.648;2024-02-23T05:30:00;55.25;;;14.77;;
76617;SDS011;65509;42.816;74.648;2024-02-23T05:32:25;41.20;;;16.60;;
76617;SDS011;65509;42.816;74.648;2024-02-23T05:34:51;51.42;;;16.27;;
76617;SDS011;65509;42.816;74.648;2024-02-23T05:37:21;47.13;;;17.20;;
76617;SDS011;65509;42.816;74.648;2024-02-23T05:39:47;55.88;;;17.63;;
76617;SDS011;65509;42.816;74.648;2024-02-23T05:42:12;56.78;;;16.70;;
76617;SDS011;65509;42.816;74.648;2024-02-23T05:44:39;48.05;;;15.93;;
76617;SDS011;65509;42.816;74.648;2024-02-23T05:47:05;48.25;;;15.48;;
76617;SDS011;65509;42.816;74.648;2024-02-23T05:49:33;42.55;;;15.30;;
76617;SDS011;65509;42.816;74.648;2024-02-23T05:52:01;93.07;;;18.60;;
76617;SDS011;65509;42.816;74.648;2024-02-23T05:54:27;43.92;;;16.00;;
76617;SDS011;65509;42.816;74.648;2024-02-23T05:56:55;48.60;;;16.77;;
76617;SDS011;65509;42.816;74.648;2024-02-23T05:59:20;54.22;;;17.40;;
76617;SDS011;65509;42.816;74.648;2024-02-23T06:01:46;49.53;;;17.73;;
76617;SDS011;65509;42.816;74.648;2024-02-23T06:04:15;75.05;;;17.45;;
76617;SDS011;65509;42.816;74.648;2024-02-23T06:06:43;69.20;;;17.00;;
76617;SDS011;65509;42.816;74.648;2024-02-23T06:09:09;54.35;;;18.60;;
76617;SDS011;65509;42.816;74.648;2024-02-23T06:11:34;44.70;;;16.67;;
76617;SDS011;65509;42.816;74.648;2024-02-23T06:14:00;52.03;;;18.30;;
76617;SDS011;65509;42.816;74.648;2024-02-23T06:16:25;45.00;;;19.35;;
76617;SDS011;65509;42.816;74.648;2024-02-23T06:18:53;44.50;;;17.83;;
76617;SDS011;65509;42.816;74.648;2024-02-23T06:21:19;47.10;;;14.38;;
76617;SDS011;65509;42.816;74.648;2024-02-23T06:23:44;54.20;;;14.00;;
76617;SDS011;65509;42.816;74.648;2024-02-23T06:26:13;46.03;;;13.70;;
76617;SDS011;65509;42.816;74.648;2024-02-23T06:28:38;42.38;;;12.73;;
76617;SDS011;65509;42.816;74.648;2024-02-23T06:31:06;55.15;;;13.55;;
76617;SDS011;65509;42.816;74.648;2024-02-23T06:33:36;50.17;;;14.35;;
76617;SDS011;65509;42.816;74.648;2024-02-23T06:36:01;62.08;;;14.38;;
76617;SDS011;65509;42.816;74.648;2024-02-23T06:38:28;37.92;;;14.88;;
76617;SDS011;65509;42.816;74.648;2024-02-23T06:40:53;49.83;;;14.63;;
76617;SDS011;65509;42.816;74.648;2024-02-23T06:43:20;62.03;;;15.32;;
76617;SDS011;65509;42.816;74.648;2024-02-23T06:45:46;44.67;;;14.45;;
76617;SDS011;65509;42.816;74.648;2024-02-23T06:48:11;46.35;;;13.48;;
76617;SDS011;65509;42.816;74.648;2024-02-23T06:50:36;41.80;;;12.77;;
76617;SDS011;65509;42.816;74.648;2024-02-23T06:53:02;56.72;;;11.13;;
76617;SDS011;65509;42.816;74.648;2024-02-23T06:55:28;45.75;;;9.98;;
76617;SDS011;65509;42.816;74.648;2024-02-23T06:57:54;39.65;;;10.23;;
76617;SDS011;65509;42.816;74.648;2024-02-23T07:00:22;41.75;;;13.27;;
76617;SDS011;65509;42.816;74.648;2024-02-23T07:02:47;42.00;;;13.30;;
76617;SDS011;65509;42.816;74.648;2024-02-23T07:05:13;53.50;;;17.90;;
76617;SDS011;65509;42.816;74.648;2024-02-23T07:07:39;58.08;;;18.90;;
76617;SDS011;65509;42.816;74.648;2024-02-23T07:10:05;81.57;;;19.10;;
76617;SDS011;65509;42.816;74.648;2024-02-23T07:12:31;49.72;;;17.73;;
76617;SDS011;65509;42.816;74.648;2024-02-23T07:14:57;57.33;;;16.52;;
76617;SDS011;65509;42.816;74.648;2024-02-23T07:17:22;45.35;;;16.70;;
76617;SDS011;65509;42.816;74.648;2024-02-23T07:19:48;49.75;;;16.33;;
76617;SDS011;65509;42.816;74.648;2024-02-23T07:22:13;34.60;;;15.63;;
76617;SDS011;65509;42.816;74.648;2024-02-23T07:24:41;56.25;;;16.00;;
76617;SDS011;65509;42.816;74.648;2024-02-23T07:27:07;62.72;;;16.58;;
76617;SDS011;65509;42.816;74.648;2024-02-23T07:29:32;55.15;;;16.05;;
76617;SDS011;65509;42.816;74.648;2024-02-23T07:31:58;48.13;;;15.60;;
76617;SDS011;65509;42.816;74.648;2024-02-23T07:34:23;51.85;;;17.08;;
76617;SDS011;65509;42.816;74.648;2024-02-23T07:36:51;43.45;;;15.30;;
76617;SDS011;65509;42.816;74.648;2024-02-23T07:39:16;48.80;;;17.13;;
76617;SDS011;65509;42.816;74.648;2024-02-23T07:41:42;54.58;;;17.02;;
76617;SDS011;65509;42.816;74.648;2024-02-23T07:44:07;61.13;;;16.30;;
76617;SDS011;65509;42.816;74.648;2024-02-23T07:46:33;50.03;;;16.95;;
76617;SDS011;65509;42.816;74.648;2024-02-23T07:48:58;58.63;;;15.32;;
76617;SDS011;65509;42.816;74.648;2024-02-23T07:51:24;37.17;;;14.50;;
76617;SDS011;65509;42.816;74.648;2024-02-23T07:53:49;61.60;;;14.95;;
76617;SDS011;65509;42.816;74.648;2024-02-23T07:56:15;76.55;;;17.27;;
76617;SDS011;65509;42.816;74.648;2024-02-23T07:58:43;41.67;;;16.65;;
76617;SDS011;65509;42.816;74.648;2024-02-23T08:01:16;69.55;;;18.00;;
76617;SDS011;65509;42.816;74.648;2024-02-23T08:03:41;44.97;;;18.23;;
76617;SDS011;65509;42.816;74.648;2024-02-23T08:06:07;62.53;;;18.85;;
76617;SDS011;65509;42.816;74.648;2024-02-23T08:08:38;33.35;;;14.95;;
76617;SDS011;65509;42.816;74.648;2024-02-23T08:11:03;63.45;;;15.77;;
76617;SDS011;65509;42.816;74.648;2024-02-23T08:13:29;58.28;;;17.77;;
76617;SDS011;65509;42.816;74.648;2024-02-23T08:15:55;50.88;;;14.07;;
76617;SDS011;65509;42.816;74.648;2024-02-23T08:18:20;40.92;;;14.77;;
76617;SDS011;65509;42.816;74.648;2024-02-23T08:20:47;55.10;;;16.55;;
76617;SDS011;65509;42.816;74.648;2024-02-23T08:23:13;66.78;;;17.52;;
76617;SDS011;65509;42.816;74.648;2024-02-23T08:25:38;60.58;;;17.10;;
76617;SDS011;65509;42.816;74.648;2024-02-23T08:28:04;56.42;;;18.33;;
76617;SDS011;65509;42.816;74.648;2024-02-23T08:30:29;34.45;;;16.83;;
76617;SDS011;65509;42.816;74.648;2024-02-23T08:32:55;45.78;;;17.63;;
76617;SDS011;65509;42.816;74.648;2024-02-23T08:35:20;111.70;;;48.30;;
76617;SDS011;65509;42.816;74.648;2024-02-23T08:37:46;93.00;;;36.47;;
76617;SDS011;65509;42.816;74.648;2024-02-23T08:40:12;65.75;;;20.95;;
76617;SDS011;65509;42.816;74.648;2024-02-23T08:42:37;55.25;;;20.15;;
76617;SDS011;65509;42.816;74.648;2024-02-23T08:45:03;103.18;;;27.60;;
76617;SDS011;65509;42.816;74.648;2024-02-23T08:47:30;74.80;;;34.75;;
76617;SDS011;65509;42.816;74.648;2024-02-23T08:49:59;62.22;;;25.15;;
76617;SDS011;65509;42.816;74.648;2024-02-23T08:52:24;65.00;;;23.98;;
76617;SDS011;65509;42.816;74.648;2024-02-23T08:54:51;67.20;;;27.30;;
76617;SDS011;65509;42.816;74.648;2024-02-23T08:57:16;87.15;;;27.05;;
76617;SDS011;65509;42.816;74.648;2024-02-23T08:59:44;75.55;;;29.65;;
76617;SDS011;65509;42.816;74.648;2024-02-23T09:02:10;96.45;;;29.73;;
76617;SDS011;65509;42.816;74.648;2024-02-23T09:04:36;73.20;;;28.35;;
76617;SDS011;65509;42.816;74.648;2024-02-23T09:07:01;65.00;;;24.77;;
76617;SDS011;65509;42.816;74.648;2024-02-23T09:09:36;122.68;;;40.63;;
76617;SDS011;65509;42.816;74.648;2024-02-23T09:12:01;143.38;;;51.35;;
76617;SDS011;65509;42.816;74.648;2024-02-23T09:14:27;133.80;;;47.85;;
76617;SDS011;65509;42.816;74.648;2024-02-23T09:16:53;75.80;;;30.52;;
76617;SDS011;65509;42.816;74.648;2024-02-23T09:19:18;110.57;;;38.63;;
76617;SDS011;65509;42.816;74.648;2024-02-23T09:21:44;77.63;;;35.00;;
76617;SDS011;65509;42.816;74.648;2024-02-23T09:24:10;104.05;;;39.78;;
76617;SDS011;65509;42.816;74.648;2024-02-23T09:26:35;70.32;;;33.70;;
76617;SDS011;65509;42.816;74.648;2024-02-23T09:29:02;76.65;;;32.35;;
76617;SDS011;65509;42.816;74.648;2024-02-23T09:31:28;114.88;;;50.70;;
76617;SDS011;65509;42.816;74.648;2024-02-23T09:33:55;150.50;;;59.55;;
76617;SDS011;65509;42.816;74.648;2024-02-23T09:36:20;95.60;;;39.53;;
76617;SDS011;65509;42.816;74.648;2024-02-23T09:38:49;62.45;;;24.92;;
76617;SDS011;65509;42.816;74.648;2024-02-23T09:41:22;191.65;;;81.28;;
76617;SDS011;65509;42.816;74.648;2024-02-23T09:43:48;73.93;;;30.25;;
76617;SDS011;65509;42.816;74.648;2024-02-23T09:46:17;93.07;;;33.60;;
76617;SDS011;65509;42.816;74.648;2024-02-23T09:48:43;91.43;;;39.53;;
76617;SDS011;65509;42.816;74.648;2024-02-23T09:51:10;101.72;;;39.45;;
76617;SDS011;65509;42.816;74.648;2024-02-23T09:53:41;84.53;;;41.60;;
76617;SDS011;65509;42.816;74.648;2024-02-23T09:56:06;104.97;;;44.03;;
76617;SDS011;65509;42.816;74.648;2024-02-23T09:58:33;101.97;;;52.35;;
76617;SDS011;65509;42.816;74.648;2024-02-23T10:00:59;119.90;;;55.53;;
76617;SDS011;65509;42.816;74.648;2024-02-23T10:03:29;188.57;;;97.45;;
76617;SDS011;65509;42.816;74.648;2024-02-23T10:05:58;183.10;;;92.95;;
76617;SDS011;65509;42.816;74.648;2024-02-23T10:08:26;162.45;;;96.68;;
76617;SDS011;65509;42.816;74.648;2024-02-23T10:10:52;194.65;;;106.75;;
76617;SDS011;65509;42.816;74.648;2024-02-23T10:13:19;180.98;;;84.15;;
76617;SDS011;65509;42.816;74.648;2024-02-23T10:15:49;124.57;;;61.92;;
76617;SDS011;65509;42.816;74.648;2024-02-23T10:18:15;222.52;;;98.03;;
76617;SDS011;65509;42.816;74.648;2024-02-23T10:20:40;115.10;;;58.20;;
76617;SDS011;65509;42.816;74.648;2024-02-23T10:23:10;133.10;;;60.35;;
76617;SDS011;65509;42.816;74.648;2024-02-23T10:25:35;108.85;;;54.03;;
76617;SDS011;65509;42.816;74.648;2024-02-23T10:28:02;96.45;;;48.42;;
76617;SDS011;65509;42.816;74.648;2024-02-23T10:30:27;89.55;;;47.17;;
76617;SDS011;65509;42.816;74.648;2024-02-23T10:32:54;75.88;;;29.67;;
76617;SDS011;65509;42.816;74.648;2024-02-23T10:35:20;86.63;;;27.60;;
76617;SDS011;65509;42.816;74.648;2024-02-23T10:37:47;72.28;;;27.67;;
76617;SDS011;65509;42.816;74.648;2024-02-23T10:40:15;118.25;;;33.28;;
76617;SDS011;65509;42.816;74.648;2024-02-23T10:42:41;89.13;;;44.25;;
76617;SDS011;65509;42.816;74.648;2024-02-23T10:45:09;127.13;;;50.80;;
76617;SDS011;65509;42.816;74.648;2024-02-23T10:47:37;142.93;;;60.10;;
76617;SDS011;65509;42.816;74.648;2024-02-23T10:50:03;133.15;;;53.80;;
76617;SDS011;65509;42.816;74.648;2024-02-23T10:52:30;126.55;;;56.60;;
76617;SDS011;65509;42.816;74.648;2024-02-23T10:54:56;81.13;;;26.85;;
76617;SDS011;65509;42.816;74.648;2024-02-23T10:57:22;103.30;;;30.92;;
76617;SDS011;65509;42.816;74.648;2024-02-23T10:59:48;89.90;;;26.77;;
76617;SDS011;65509;42.816;74.648;2024-02-23T11:02:16;95.50;;;26.70;;
76617;SDS011;65509;42.816;74.648;2024-02-23T11:04:44;149.90;;;60.47;;
76617;SDS011;65509;42.816;74.648;2024-02-23T11:07:14;103.53;;;27.13;;
76617;SDS011;65509;42.816;74.648;2024-02-23T11:09:40;84.35;;;28.05;;
76617;SDS011;65509;42.816;74.648;2024-02-23T11:12:05;90.50;;;30.27;;
76617;SDS011;65509;42.816;74.648;2024-02-23T11:14:31;78.53;;;28.48;;
76617;SDS011;65509;42.816;74.648;2024-02-23T11:17:00;156.32;;;48.47;;
76617;SDS011;65509;42.816;74.648;2024-02-23T11:19:36;124.78;;;41.47;;
76617;SDS011;65509;42.816;74.648;2024-02-23T11:22:02;178.13;;;57.55;;
76617;SDS011;65509;42.816;74.648;2024-02-23T11:24:32;187.20;;;58.05;;
76617;SDS011;65509;42.816;74.648;2024-02-23T11:26:58;123.40;;;38.45;;
76617;SDS011;65509;42.816;74.648;2024-02-23T11:29:25;181.13;;;53.90;;
76617;SDS011;65509;42.816;74.648;2024-02-23T11:31:51;116.57;;;41.70;;
76617;SDS011;65509;42.816;74.648;2024-02-23T11:34:23;166.30;;;53.67;;
76617;SDS011;65509;42.816;74.648;2024-02-23T11:36:52;132.15;;;45.78;;
76617;SDS011;65509;42.816;74.648;2024-02-23T11:39:19;162.60;;;49.30;;
76617;SDS011;65509;42.816;74.648;2024-02-23T11:41:50;148.10;;;52.38;;
76617;SDS011;65509;42.816;74.648;2024-02-23T11:44:15;152.60;;;45.53;;
76617;SDS011;65509;42.816;74.648;2024-02-23T11:46:44;136.23;;;46.92;;
76617;SDS011;65509;42.816;74.648;2024-02-23T11:49:15;177.18;;;54.35;;
76617;SDS011;65509;42.816;74.648;2024-02-23T11:51:41;154.68;;;49.45;;
76617;SDS011;65509;42.816;74.648;2024-02-23T11:54:07;109.68;;;35.28;;
76617;SDS011;65509;42.816;74.648;2024-02-23T11:56:32;103.15;;;33.90;;
76617;SDS011;65509;42.816;74.648;2024-02-23T11:58:58;97.80;;;30.73;;
76617;SDS011;65509;42.816;74.648;2024-02-23T12:01:24;108.43;;;32.70;;
76617;SDS011;65509;42.816;74.648;2024-02-23T12:03:49;101.97;;;32.75;;
76617;SDS011;65509;42.816;74.648;2024-02-23T12:06:18;107.38;;;31.65;;
76617;SDS011;65509;42.816;74.648;2024-02-23T12:08:46;104.18;;;33.42;;
76617;SDS011;65509;42.816;74.648;2024-02-23T12:11:12;120.07;;;40.75;;
76617;SDS011;65509;42.816;74.648;2024-02-23T12:13:39;130.93;;;46.75;;
76617;SDS011;65509;42.816;74.648;2024-02-23T12:16:06;103.57;;;36.17;;
76617;SDS011;65509;42.816;74.648;2024-02-23T12:18:35;158.45;;;52.22;;
76617;SDS011;65509;42.816;74.648;2024-02-23T12:21:01;131.20;;;43.63;;
76617;SDS011;65509;42.816;74.648;2024-02-23T12:23:37;116.07;;;36.95;;
76617;SDS011;65509;42.816;74.648;2024-02-23T12:26:02;110.95;;;36.67;;
76617;SDS011;65509;42.816;74.648;2024-02-23T12:28:28;144.90;;;42.80;;
76617;SDS011;65509;42.816;74.648;2024-02-23T12:31:01;127.00;;;44.80;;
76617;SDS011;65509;42.816;74.648;2024-02-23T12:33:27;129.80;;;39.28;;
76617;SDS011;65509;42.816;74.648;2024-02-23T12:35:54;106.68;;;36.35;;
76617;SDS011;65509;42.816;74.648;2024-02-23T12:38:20;122.72;;;35.25;;
76617;SDS011;65509;42.816;74.648;2024-02-23T12:40:46;99.88;;;31.35;;
76617;SDS011;65509;42.816;74.648;2024-02-23T12:43:11;103.13;;;28.95;;
76617;SDS011;65509;42.816;74.648;2024-02-23T12:45:37;91.05;;;29.75;;
76617;SDS011;65509;42.816;74.648;2024-02-23T12:48:05;104.22;;;34.85;;
76617;SDS011;65509;42.816;74.648;2024-02-23T12:50:31;189.50;;;53.05;;
76617;SDS011;65509;42.816;74.648;2024-02-23T12:52:59;105.50;;;28.10;;
76617;SDS011;65509;42.816;74.648;2024-02-23T12:55:29;80.80;;;22.92;;
76617;SDS011;65509;42.816;74.648;2024-02-23T12:57:57;98.28;;;27.63;;
76617;SDS011;65509;42.816;74.648;2024-02-23T13:00:32;123.30;;;33.47;;
76617;SDS011;65509;42.816;74.648;2024-02-23T13:02:57;100.43;;;27.50;;
76617;SDS011;65509;42.816;74.648;2024-02-23T13:05:23;114.07;;;28.25;;
76617;SDS011;65509;42.816;74.648;2024-02-23T13:07:48;103.97;;;31.77;;
76617;SDS011;65509;42.816;74.648;2024-02-23T13:10:14;106.90;;;35.00;;
76617;SDS011;65509;42.816;74.648;2024-02-23T13:12:40;97.60;;;30.95;;
76617;SDS011;65509;42.816;74.648;2024-02-23T13:15:05;97.57;;;31.52;;
76617;SDS011;65509;42.816;74.648;2024-02-23T13:17:31;99.82;;;27.88;;
76617;SDS011;65509;42.816;74.648;2024-02-23T13:19:57;108.60;;;32.28;;
76617;SDS011;65509;42.816;74.648;2024-02-23T13:22:22;179.52;;;49.35;;
76617;SDS011;65509;42.816;74.648;2024-02-23T13:24:47;149.43;;;45.25;;
76617;SDS011;65509;42.816;74.648;2024-02-23T13:27:13;98.05;;;33.17;;
76617;SDS011;65509;42.816;74.648;2024-02-23T13:29:38;125.40;;;36.72;;
76617;SDS011;65509;42.816;74.648;2024-02-23T13:32:04;160.68;;;43.72;;
76617;SDS011;65509;42.816;74.648;2024-02-23T13:34:36;109.70;;;33.22;;
76617;SDS011;65509;42.816;74.648;2024-02-23T13:37:01;93.85;;;30.95;;
76617;SDS011;65509;42.816;74.648;2024-02-23T13:39:27;179.52;;;45.40;;
76617;SDS011;65509;42.816;74.648;2024-02-23T13:41:52;137.38;;;39.97;;
76617;SDS011;65509;42.816;74.648;2024-02-23T13:44:18;120.63;;;33.83;;
76617;SDS011;65509;42.816;74.648;2024-02-23T13:46:49;96.65;;;27.38;;
76617;SDS011;65509;42.816;74.648;2024-02-23T13:49:15;184.75;;;54.17;;
76617;SDS011;65509;42.816;74.648;2024-02-23T13:51:40;146.35;;;43.92;;
76617;SDS011;65509;42.816;74.648;2024-02-23T13:54:07;142.82;;;44.80;;
76617;SDS011;65509;42.816;74.648;2024-02-23T13:56:39;118.57;;;29.83;;
76617;SDS011;65509;42.816;74.648;2024-02-23T13:59:05;101.00;;;32.10;;
76617;SDS011;65509;42.816;74.648;2024-02-23T14:01:30;186.38;;;49.35;;
76617;SDS011;65509;42.816;74.648;2024-02-23T14:03:56;264.25;;;71.95;;
76617;SDS011;65509;42.816;74.648;2024-02-23T14:06:22;202.68;;;52.90;;
76617;SDS011;65509;42.816;74.648;2024-02-23T14:08:47;140.00;;;42.78;;